sensor_id;sensor_type;location;lat;lon;timestamp;P1;durP1;ratioP1;P2;durP2;ratioP2
60665;SDS011;59128;44.642;21.188;2023-03-02T00:00:52;9.05;;;8.00;;
60665;SDS011;59128;44.642;21.188;2023-03-02T00:03:18;8.90;;;7.93;;
60665;SDS011;59128;44.642;21.188;2023-03-02T00:05:44;8.52;;;7.57;;
60665;SDS011;59128;44.642;21.188;2023-03-02T00:08:11;9.40;;;7.43;;
60665;SDS011;59128;44.642;21.188;2023-03-02T00:10:38;10.02;;;8.57;;
60665;SDS011;59128;44.642;21.188;2023-03-02T00:13:04;11.52;;;9.07;;
60665;SDS011;59128;44.642;21.188;2023-03-02T00:15:30;10.88;;;9.63;;
60665;SDS011;59128;44.642;21.188;2023-03-02T00:17:56;9.70;;;8.70;;
60665;SDS011;59128;44.642;21.188;2023-03-02T00:20:22;8.10;;;7.30;;
60665;SDS011;59128;44.642;21.188;2023-03-02T00:22:48;9.00;;;7.13;;
60665;SDS011;59128;44.642;21.188;2023-03-02T00:25:14;7.70;;;6.97;;
60665;SDS011;59128;44.642;21.188;2023-03-02T00:27:40;8.45;;;7.07;;
60665;SDS011;59128;44.642;21.188;2023-03-02T00:30:07;8.48;;;7.57;;
60665;SDS011;59128;44.642;21.188;2023-03-02T00:32:33;8.75;;;7.72;;
60665;SDS011;59128;44.642;21.188;2023-03-02T00:35:00;8.60;;;7.70;;
60665;SDS011;59128;44.642;21.188;2023-03-02T00:37:26;9.30;;;7.55;;
60665;SDS011;59128;44.642;21.188;2023-03-02T00:39:52;8.38;;;7.00;;
60665;SDS011;59128;44.642;21.188;2023-03-02T00:42:18;8.23;;;7.43;;
60665;SDS011;59128;44.642;21.188;2023-03-02T00:44:44;7.85;;;7.05;;
60665;SDS011;59128;44.642;21.188;2023-03-02T00:47:10;8.43;;;7.60;;
60665;SDS011;59128;44.642;21.188;2023-03-02T00:49:36;7.00;;;6.25;;
60665;SDS011;59128;44.642;21.188;2023-03-02T00:52:03;7.45;;;6.75;;
60665;SDS011;59128;44.642;21.188;2023-03-02T00:54:29;8.02;;;7.22;;
60665;SDS011;59128;44.642;21.188;2023-03-02T00:56:55;7.70;;;6.78;;
60665;SDS011;59128;44.642;21.188;2023-03-02T00:59:21;7.40;;;6.67;;
60665;SDS011;59128;44.642;21.188;2023-03-02T01:01:57;8.05;;;7.20;;
60665;SDS011;59128;44.642;21.188;2023-03-02T01:04:29;7.00;;;6.30;;
60665;SDS011;59128;44.642;21.188;2023-03-02T01:06:56;7.43;;;6.63;;
60665;SDS011;59128;44.642;21.188;2023-03-02T01:09:22;7.35;;;6.65;;
60665;SDS011;59128;44.642;21.188;2023-03-02T01:11:48;7.20;;;6.45;;
60665;SDS011;59128;44.642;21.188;2023-03-02T01:14:14;7.40;;;6.68;;
60665;SDS011;59128;44.642;21.188;2023-03-02T01:16:40;7.00;;;6.30;;
60665;SDS011;59128;44.642;21.188;2023-03-02T01:19:06;8.57;;;7.68;;
60665;SDS011;59128;44.642;21.188;2023-03-02T01:21:32;8.27;;;7.47;;
60665;SDS011;59128;44.642;21.188;2023-03-02T01:23:58;6.65;;;5.95;;
60665;SDS011;59128;44.642;21.188;2023-03-02T01:26:24;6.38;;;5.78;;
60665;SDS011;59128;44.642;21.188;2023-03-02T01:28:50;8.13;;;7.28;;
60665;SDS011;59128;44.642;21.188;2023-03-02T01:31:20;8.90;;;7.93;;
60665;SDS011;59128;44.642;21.188;2023-03-02T01:33:47;9.82;;;8.32;;
60665;SDS011;59128;44.642;21.188;2023-03-02T01:36:13;10.70;;;8.77;;
60665;SDS011;59128;44.642;21.188;2023-03-02T01:38:39;11.40;;;9.38;;
60665;SDS011;59128;44.642;21.188;2023-03-02T01:41:05;8.23;;;7.10;;
60665;SDS011;59128;44.642;21.188;2023-03-02T01:43:31;8.13;;;7.32;;
60665;SDS011;59128;44.642;21.188;2023-03-02T01:46:01;7.18;;;6.47;;
60665;SDS011;59128;44.642;21.188;2023-03-02T01:48:41;6.20;;;5.60;;
60665;SDS011;59128;44.642;21.188;2023-03-02T01:51:09;5.50;;;4.83;;
60665;SDS011;59128;44.642;21.188;2023-03-02T01:53:38;6.68;;;5.47;;
60665;SDS011;59128;44.642;21.188;2023-03-02T01:56:10;5.65;;;4.88;;
60665;SDS011;59128;44.642;21.188;2023-03-02T01:58:38;5.15;;;4.60;;
60665;SDS011;59128;44.642;21.188;2023-03-02T02:01:04;5.15;;;4.65;;
60665;SDS011;59128;44.642;21.188;2023-03-02T02:03:39;4.63;;;4.23;;
60665;SDS011;59128;44.642;21.188;2023-03-02T02:06:08;4.93;;;4.43;;
60665;SDS011;59128;44.642;21.188;2023-03-02T02:08:36;5.85;;;5.25;;
60665;SDS011;59128;44.642;21.188;2023-03-02T02:11:03;6.95;;;5.78;;
60665;SDS011;59128;44.642;21.188;2023-03-02T02:13:30;8.48;;;7.05;;
60665;SDS011;59128;44.642;21.188;2023-03-02T02:15:57;7.53;;;6.70;;
60665;SDS011;59128;44.642;21.188;2023-03-02T02:18:23;8.32;;;7.45;;
60665;SDS011;59128;44.642;21.188;2023-03-02T02:20:50;8.45;;;7.45;;
60665;SDS011;59128;44.642;21.188;2023-03-02T02:23:19;8.18;;;7.15;;
60665;SDS011;59128;44.642;21.188;2023-03-02T02:30:46;9.70;;;7.70;;
60665;SDS011;59128;44.642;21.188;2023-03-02T02:33:15;8.45;;;7.55;;
60665;SDS011;59128;44.642;21.188;2023-03-02T02:35:44;8.37;;;6.87;;
60665;SDS011;59128;44.642;21.188;2023-03-02T02:38:11;7.30;;;6.38;;
60665;SDS011;59128;44.642;21.188;2023-03-02T02:40:46;8.18;;;6.85;;
60665;SDS011;59128;44.642;21.188;2023-03-02T02:43:13;7.88;;;7.07;;
60665;SDS011;59128;44.642;21.188;2023-03-02T02:45:39;7.63;;;6.82;;
60665;SDS011;59128;44.642;21.188;2023-03-02T02:48:07;8.63;;;6.97;;
60665;SDS011;59128;44.642;21.188;2023-03-02T02:50:35;7.63;;;6.53;;
60665;SDS011;59128;44.642;21.188;2023-03-02T02:53:12;7.90;;;7.05;;
60665;SDS011;59128;44.642;21.188;2023-03-02T02:55:39;7.55;;;6.40;;
60665;SDS011;59128;44.642;21.188;2023-03-02T02:58:10;7.57;;;6.63;;
60665;SDS011;59128;44.642;21.188;2023-03-02T03:00:40;7.22;;;6.53;;
60665;SDS011;59128;44.642;21.188;2023-03-02T03:03:10;8.35;;;6.43;;
60665;SDS011;59128;44.642;21.188;2023-03-02T03:05:55;7.23;;;6.53;;
60665;SDS011;59128;44.642;21.188;2023-03-02T03:11:09;7.88;;;6.70;;
60665;SDS011;59128;44.642;21.188;2023-03-02T03:13:36;6.78;;;5.70;;
60665;SDS011;59128;44.642;21.188;2023-03-02T03:16:03;8.48;;;6.45;;
60665;SDS011;59128;44.642;21.188;2023-03-02T03:18:30;7.07;;;5.75;;
60665;SDS011;59128;44.642;21.188;2023-03-02T03:20:56;6.00;;;5.35;;
60665;SDS011;59128;44.642;21.188;2023-03-02T03:23:22;6.45;;;5.85;;
60665;SDS011;59128;44.642;21.188;2023-03-02T03:25:48;5.68;;;5.07;;
60665;SDS011;59128;44.642;21.188;2023-03-02T03:28:14;5.60;;;5.00;;
60665;SDS011;59128;44.642;21.188;2023-03-02T03:30:42;6.07;;;5.00;;
60665;SDS011;59128;44.642;21.188;2023-03-02T03:33:08;4.78;;;4.28;;
60665;SDS011;59128;44.642;21.188;2023-03-02T03:35:35;4.95;;;4.00;;
60665;SDS011;59128;44.642;21.188;2023-03-02T03:38:02;5.45;;;4.78;;
60665;SDS011;59128;44.642;21.188;2023-03-02T03:40:28;4.75;;;4.25;;
60665;SDS011;59128;44.642;21.188;2023-03-02T03:42:58;4.97;;;4.47;;
60665;SDS011;59128;44.642;21.188;2023-03-02T03:45:24;3.90;;;3.50;;
60665;SDS011;59128;44.642;21.188;2023-03-02T03:47:50;4.75;;;4.15;;
60665;SDS011;59128;44.642;21.188;2023-03-02T03:50:16;4.07;;;3.67;;
60665;SDS011;59128;44.642;21.188;2023-03-02T03:52:42;4.57;;;4.17;;
60665;SDS011;59128;44.642;21.188;2023-03-02T03:55:08;5.22;;;4.72;;
60665;SDS011;59128;44.642;21.188;2023-03-02T04:00:11;5.13;;;4.25;;
60665;SDS011;59128;44.642;21.188;2023-03-02T04:02:39;5.90;;;4.28;;
60665;SDS011;59128;44.642;21.188;2023-03-02T04:05:05;4.72;;;4.22;;
60665;SDS011;59128;44.642;21.188;2023-03-02T04:07:32;4.97;;;4.47;;
60665;SDS011;59128;44.642;21.188;2023-03-02T04:09:58;3.97;;;3.47;;
60665;SDS011;59128;44.642;21.188;2023-03-02T04:12:27;3.60;;;3.30;;
60665;SDS011;59128;44.642;21.188;2023-03-02T04:14:53;5.10;;;4.60;;
60665;SDS011;59128;44.642;21.188;2023-03-02T04:17:19;5.13;;;4.53;;
60665;SDS011;59128;44.642;21.188;2023-03-02T04:19:45;5.00;;;4.50;;
60665;SDS011;59128;44.642;21.188;2023-03-02T04:22:11;7.15;;;5.63;;
60665;SDS011;59128;44.642;21.188;2023-03-02T04:24:37;5.30;;;4.80;;
60665;SDS011;59128;44.642;21.188;2023-03-02T04:27:03;4.90;;;4.32;;
60665;SDS011;59128;44.642;21.188;2023-03-02T04:29:29;5.78;;;4.75;;
60665;SDS011;59128;44.642;21.188;2023-03-02T04:31:56;4.13;;;3.60;;
60665;SDS011;59128;44.642;21.188;2023-03-02T04:34:22;5.80;;;4.70;;
60665;SDS011;59128;44.642;21.188;2023-03-02T04:36:49;4.63;;;3.70;;
60665;SDS011;59128;44.642;21.188;2023-03-02T04:39:16;4.72;;;3.28;;
60665;SDS011;59128;44.642;21.188;2023-03-02T04:41:43;4.72;;;3.95;;
60665;SDS011;59128;44.642;21.188;2023-03-02T04:44:10;4.55;;;3.78;;
60665;SDS011;59128;44.642;21.188;2023-03-02T04:46:36;3.25;;;2.95;;
60665;SDS011;59128;44.642;21.188;2023-03-02T04:49:03;5.65;;;4.45;;
60665;SDS011;59128;44.642;21.188;2023-03-02T04:51:31;4.80;;;3.67;;
60665;SDS011;59128;44.642;21.188;2023-03-02T04:53:58;4.85;;;3.58;;
60665;SDS011;59128;44.642;21.188;2023-03-02T04:56:25;4.30;;;3.58;;
60665;SDS011;59128;44.642;21.188;2023-03-02T04:58:51;4.53;;;3.47;;
60665;SDS011;59128;44.642;21.188;2023-03-02T05:01:17;4.35;;;3.55;;
60665;SDS011;59128;44.642;21.188;2023-03-02T05:03:43;4.72;;;3.70;;
60665;SDS011;59128;44.642;21.188;2023-03-02T05:06:10;3.78;;;3.38;;
60665;SDS011;59128;44.642;21.188;2023-03-02T05:08:36;5.68;;;4.25;;
60665;SDS011;59128;44.642;21.188;2023-03-02T05:11:02;6.88;;;5.78;;
60665;SDS011;59128;44.642;21.188;2023-03-02T05:13:28;12.98;;;10.93;;
60665;SDS011;59128;44.642;21.188;2023-03-02T05:15:54;9.30;;;7.15;;
60665;SDS011;59128;44.642;21.188;2023-03-02T05:18:22;9.47;;;8.07;;
60665;SDS011;59128;44.642;21.188;2023-03-02T05:20:48;12.43;;;9.83;;
60665;SDS011;59128;44.642;21.188;2023-03-02T05:23:15;10.15;;;8.43;;
60665;SDS011;59128;44.642;21.188;2023-03-02T05:25:48;9.05;;;6.90;;
60665;SDS011;59128;44.642;21.188;2023-03-02T05:28:14;7.97;;;6.30;;
60665;SDS011;59128;44.642;21.188;2023-03-02T05:30:40;12.40;;;9.68;;
60665;SDS011;59128;44.642;21.188;2023-03-02T05:33:07;12.90;;;10.30;;
60665;SDS011;59128;44.642;21.188;2023-03-02T05:35:33;19.95;;;15.48;;
60665;SDS011;59128;44.642;21.188;2023-03-02T05:37:59;7.60;;;6.15;;
60665;SDS011;59128;44.642;21.188;2023-03-02T05:40:25;12.27;;;10.05;;
60665;SDS011;59128;44.642;21.188;2023-03-02T05:42:51;23.92;;;19.70;;
60665;SDS011;59128;44.642;21.188;2023-03-02T05:45:50;8.88;;;6.88;;
60665;SDS011;59128;44.642;21.188;2023-03-02T05:48:09;13.20;;;9.93;;
60665;SDS011;59128;44.642;21.188;2023-03-02T05:50:36;16.85;;;12.48;;
60665;SDS011;59128;44.642;21.188;2023-03-02T05:53:02;9.73;;;8.10;;
60665;SDS011;59128;44.642;21.188;2023-03-02T05:55:28;25.15;;;18.95;;
60665;SDS011;59128;44.642;21.188;2023-03-02T05:57:54;15.35;;;11.45;;
60665;SDS011;59128;44.642;21.188;2023-03-02T06:00:21;8.38;;;6.53;;
60665;SDS011;59128;44.642;21.188;2023-03-02T06:02:47;6.20;;;4.97;;
60665;SDS011;59128;44.642;21.188;2023-03-02T06:05:15;9.30;;;7.10;;
60665;SDS011;59128;44.642;21.188;2023-03-02T06:07:41;9.07;;;6.53;;
60665;SDS011;59128;44.642;21.188;2023-03-02T06:10:08;4.80;;;4.30;;
60665;SDS011;59128;44.642;21.188;2023-03-02T06:12:34;9.27;;;7.78;;
60665;SDS011;59128;44.642;21.188;2023-03-02T06:15:01;22.13;;;16.90;;
60665;SDS011;59128;44.642;21.188;2023-03-02T06:17:28;12.73;;;9.38;;
60665;SDS011;59128;44.642;21.188;2023-03-02T06:19:53;11.30;;;9.35;;
60665;SDS011;59128;44.642;21.188;2023-03-02T06:22:19;9.27;;;7.30;;
60665;SDS011;59128;44.642;21.188;2023-03-02T06:24:45;17.20;;;13.70;;
60665;SDS011;59128;44.642;21.188;2023-03-02T06:27:12;9.13;;;8.02;;
60665;SDS011;59128;44.642;21.188;2023-03-02T06:29:38;7.13;;;6.28;;
60665;SDS011;59128;44.642;21.188;2023-03-02T06:32:04;13.20;;;9.85;;
60665;SDS011;59128;44.642;21.188;2023-03-02T06:34:30;15.25;;;12.98;;
60665;SDS011;59128;44.642;21.188;2023-03-02T06:36:56;23.73;;;19.17;;
60665;SDS011;59128;44.642;21.188;2023-03-02T06:39:22;16.77;;;12.73;;
60665;SDS011;59128;44.642;21.188;2023-03-02T06:41:48;11.63;;;7.60;;
60665;SDS011;59128;44.642;21.188;2023-03-02T06:44:15;20.20;;;14.35;;
60665;SDS011;59128;44.642;21.188;2023-03-02T06:46:41;19.35;;;12.85;;
60665;SDS011;59128;44.642;21.188;2023-03-02T06:49:08;9.93;;;7.78;;
60665;SDS011;59128;44.642;21.188;2023-03-02T06:51:34;12.00;;;9.43;;
60665;SDS011;59128;44.642;21.188;2023-03-02T06:54:01;12.38;;;9.88;;
60665;SDS011;59128;44.642;21.188;2023-03-02T06:56:27;9.80;;;7.78;;
60665;SDS011;59128;44.642;21.188;2023-03-02T06:58:53;11.40;;;8.70;;
60665;SDS011;59128;44.642;21.188;2023-03-02T07:01:19;10.95;;;8.20;;
60665;SDS011;59128;44.642;21.188;2023-03-02T07:03:45;7.15;;;5.15;;
60665;SDS011;59128;44.642;21.188;2023-03-02T07:06:12;9.00;;;7.33;;
60665;SDS011;59128;44.642;21.188;2023-03-02T07:08:38;9.93;;;8.65;;
60665;SDS011;59128;44.642;21.188;2023-03-02T07:11:08;12.45;;;10.18;;
60665;SDS011;59128;44.642;21.188;2023-03-02T07:13:35;12.88;;;10.32;;
60665;SDS011;59128;44.642;21.188;2023-03-02T07:16:13;11.63;;;9.73;;
60665;SDS011;59128;44.642;21.188;2023-03-02T07:18:40;9.15;;;6.82;;
60665;SDS011;59128;44.642;21.188;2023-03-02T07:21:06;9.52;;;8.52;;
60665;SDS011;59128;44.642;21.188;2023-03-02T07:23:32;8.02;;;6.95;;
60665;SDS011;59128;44.642;21.188;2023-03-02T07:25:58;7.95;;;6.57;;
60665;SDS011;59128;44.642;21.188;2023-03-02T07:28:24;10.15;;;8.80;;
60665;SDS011;59128;44.642;21.188;2023-03-02T07:30:51;10.20;;;8.30;;
60665;SDS011;59128;44.642;21.188;2023-03-02T07:33:18;10.90;;;8.73;;
60665;SDS011;59128;44.642;21.188;2023-03-02T07:35:44;28.23;;;21.40;;
60665;SDS011;59128;44.642;21.188;2023-03-02T07:38:10;17.67;;;13.40;;
60665;SDS011;59128;44.642;21.188;2023-03-02T07:40:40;12.90;;;9.85;;
60665;SDS011;59128;44.642;21.188;2023-03-02T07:43:06;11.80;;;9.48;;
60665;SDS011;59128;44.642;21.188;2023-03-02T07:45:32;14.07;;;11.95;;
60665;SDS011;59128;44.642;21.188;2023-03-02T07:47:58;13.13;;;10.32;;
60665;SDS011;59128;44.642;21.188;2023-03-02T07:50:24;10.67;;;9.07;;
60665;SDS011;59128;44.642;21.188;2023-03-02T07:52:50;15.32;;;11.00;;
60665;SDS011;59128;44.642;21.188;2023-03-02T07:55:16;10.85;;;8.63;;
60665;SDS011;59128;44.642;21.188;2023-03-02T07:57:42;10.23;;;8.43;;
60665;SDS011;59128;44.642;21.188;2023-03-02T08:00:08;12.25;;;9.20;;
60665;SDS011;59128;44.642;21.188;2023-03-02T08:02:34;14.35;;;10.48;;
60665;SDS011;59128;44.642;21.188;2023-03-02T08:05:00;10.98;;;8.73;;
60665;SDS011;59128;44.642;21.188;2023-03-02T08:07:26;10.90;;;8.70;;
60665;SDS011;59128;44.642;21.188;2023-03-02T08:09:52;10.68;;;8.43;;
60665;SDS011;59128;44.642;21.188;2023-03-02T08:12:18;15.98;;;13.38;;
60665;SDS011;59128;44.642;21.188;2023-03-02T08:14:46;12.15;;;9.38;;
60665;SDS011;59128;44.642;21.188;2023-03-02T08:17:12;12.50;;;9.77;;
60665;SDS011;59128;44.642;21.188;2023-03-02T08:19:39;13.10;;;9.57;;
60665;SDS011;59128;44.642;21.188;2023-03-02T08:22:05;15.57;;;10.27;;
60665;SDS011;59128;44.642;21.188;2023-03-02T08:24:31;15.25;;;11.02;;
60665;SDS011;59128;44.642;21.188;2023-03-02T08:27:00;14.10;;;10.13;;
60665;SDS011;59128;44.642;21.188;2023-03-02T08:29:26;19.17;;;11.23;;
60665;SDS011;59128;44.642;21.188;2023-03-02T08:31:53;20.20;;;12.93;;
60665;SDS011;59128;44.642;21.188;2023-03-02T08:34:19;16.15;;;11.40;;
60665;SDS011;59128;44.642;21.188;2023-03-02T08:36:45;21.10;;;15.13;;
60665;SDS011;59128;44.642;21.188;2023-03-02T08:39:11;17.23;;;12.45;;
60665;SDS011;59128;44.642;21.188;2023-03-02T08:41:37;19.80;;;16.75;;
60665;SDS011;59128;44.642;21.188;2023-03-02T08:44:03;17.38;;;12.57;;
60665;SDS011;59128;44.642;21.188;2023-03-02T08:46:29;15.30;;;10.70;;
60665;SDS011;59128;44.642;21.188;2023-03-02T08:48:55;15.85;;;12.13;;
60665;SDS011;59128;44.642;21.188;2023-03-02T08:51:22;15.07;;;11.77;;
60665;SDS011;59128;44.642;21.188;2023-03-02T08:53:49;12.98;;;9.52;;
60665;SDS011;59128;44.642;21.188;2023-03-02T08:58:45;13.75;;;8.95;;
60665;SDS011;59128;44.642;21.188;2023-03-02T09:01:16;14.38;;;9.55;;
60665;SDS011;59128;44.642;21.188;2023-03-02T09:03:42;12.45;;;9.68;;
60665;SDS011;59128;44.642;21.188;2023-03-02T09:06:08;12.63;;;8.95;;
60665;SDS011;59128;44.642;21.188;2023-03-02T09:08:34;13.45;;;10.00;;
60665;SDS011;59128;44.642;21.188;2023-03-02T09:11:00;11.25;;;8.85;;
60665;SDS011;59128;44.642;21.188;2023-03-02T09:13:26;12.15;;;8.93;;
60665;SDS011;59128;44.642;21.188;2023-03-02T09:15:52;11.38;;;9.15;;
60665;SDS011;59128;44.642;21.188;2023-03-02T09:18:18;11.05;;;9.20;;
60665;SDS011;59128;44.642;21.188;2023-03-02T09:20:48;11.68;;;8.43;;
60665;SDS011;59128;44.642;21.188;2023-03-02T09:23:14;11.13;;;8.52;;
60665;SDS011;59128;44.642;21.188;2023-03-02T09:25:40;10.80;;;9.15;;
60665;SDS011;59128;44.642;21.188;2023-03-02T09:28:06;16.52;;;12.43;;
60665;SDS011;59128;44.642;21.188;2023-03-02T09:30:32;12.50;;;10.03;;
60665;SDS011;59128;44.642;21.188;2023-03-02T09:32:58;17.38;;;12.63;;
60665;SDS011;59128;44.642;21.188;2023-03-02T09:35:24;10.90;;;9.38;;
60665;SDS011;59128;44.642;21.188;2023-03-02T09:37:50;12.53;;;9.90;;
60665;SDS011;59128;44.642;21.188;2023-03-02T09:40:20;15.35;;;10.73;;
60665;SDS011;59128;44.642;21.188;2023-03-02T09:50:37;10.63;;;9.05;;
60665;SDS011;59128;44.642;21.188;2023-03-02T09:55:36;16.80;;;13.03;;
60665;SDS011;59128;44.642;21.188;2023-03-02T09:58:07;9.38;;;8.38;;
60665;SDS011;59128;44.642;21.188;2023-03-02T10:00:37;8.45;;;7.55;;
60665;SDS011;59128;44.642;21.188;2023-03-02T10:03:06;8.70;;;7.75;;
60665;SDS011;59128;44.642;21.188;2023-03-02T10:08:01;11.63;;;9.35;;
60665;SDS011;59128;44.642;21.188;2023-03-02T10:10:39;11.57;;;8.77;;
60665;SDS011;59128;44.642;21.188;2023-03-02T10:20:44;12.80;;;9.70;;
60665;SDS011;59128;44.642;21.188;2023-03-02T10:25:54;7.20;;;6.47;;
60665;SDS011;59128;44.642;21.188;2023-03-02T10:28:23;8.75;;;7.75;;
60665;SDS011;59128;44.642;21.188;2023-03-02T10:30:55;9.93;;;8.63;;
60665;SDS011;59128;44.642;21.188;2023-03-02T10:33:22;6.93;;;5.75;;
60665;SDS011;59128;44.642;21.188;2023-03-02T10:35:49;9.83;;;7.57;;
60665;SDS011;59128;44.642;21.188;2023-03-02T10:38:16;8.75;;;7.78;;
60665;SDS011;59128;44.642;21.188;2023-03-02T10:41:02;7.53;;;6.72;;
60665;SDS011;59128;44.642;21.188;2023-03-02T10:46:01;8.47;;;7.37;;
60665;SDS011;59128;44.642;21.188;2023-03-02T10:48:27;8.20;;;7.40;;
60665;SDS011;59128;44.642;21.188;2023-03-02T10:50:54;7.20;;;6.10;;
60665;SDS011;59128;44.642;21.188;2023-03-02T10:53:20;6.68;;;6.07;;
60665;SDS011;59128;44.642;21.188;2023-03-02T10:55:47;6.10;;;5.50;;
60665;SDS011;59128;44.642;21.188;2023-03-02T10:58:21;6.90;;;6.20;;
60665;SDS011;59128;44.642;21.188;2023-03-02T11:00:56;6.93;;;6.03;;
60665;SDS011;59128;44.642;21.188;2023-03-02T11:03:22;6.13;;;5.53;;
60665;SDS011;59128;44.642;21.188;2023-03-02T11:05:49;6.55;;;5.60;;
60665;SDS011;59128;44.642;21.188;2023-03-02T11:08:16;5.97;;;5.38;;
60665;SDS011;59128;44.642;21.188;2023-03-02T11:10:53;5.95;;;5.10;;
60665;SDS011;59128;44.642;21.188;2023-03-02T11:13:22;4.97;;;4.35;;
60665;SDS011;59128;44.642;21.188;2023-03-02T11:15:52;4.45;;;4.05;;
60665;SDS011;59128;44.642;21.188;2023-03-02T11:18:24;5.97;;;5.38;;
60665;SDS011;59128;44.642;21.188;2023-03-02T11:21:00;5.15;;;4.65;;
60665;SDS011;59128;44.642;21.188;2023-03-02T11:26:08;6.30;;;5.40;;
60665;SDS011;59128;44.642;21.188;2023-03-02T11:28:40;5.35;;;4.85;;
60665;SDS011;59128;44.642;21.188;2023-03-02T11:31:11;7.97;;;7.27;;
60665;SDS011;59128;44.642;21.188;2023-03-02T11:34:04;6.18;;;5.53;;
60665;SDS011;59128;44.642;21.188;2023-03-02T11:36:34;6.45;;;5.75;;
60665;SDS011;59128;44.642;21.188;2023-03-02T11:39:02;6.30;;;5.70;;
60665;SDS011;59128;44.642;21.188;2023-03-02T11:41:33;17.30;;;11.93;;
60665;SDS011;59128;44.642;21.188;2023-03-02T11:44:21;8.93;;;8.02;;
60665;SDS011;59128;44.642;21.188;2023-03-02T11:46:50;6.07;;;5.33;;
60665;SDS011;59128;44.642;21.188;2023-03-02T11:49:34;6.93;;;5.30;;
60665;SDS011;59128;44.642;21.188;2023-03-02T11:52:01;5.20;;;4.70;;
60665;SDS011;59128;44.642;21.188;2023-03-02T11:54:30;6.38;;;5.72;;
60665;SDS011;59128;44.642;21.188;2023-03-02T11:56:57;6.55;;;5.85;;
60665;SDS011;59128;44.642;21.188;2023-03-02T11:59:23;6.95;;;5.97;;
60665;SDS011;59128;44.642;21.188;2023-03-02T12:01:51;6.72;;;6.00;;
60665;SDS011;59128;44.642;21.188;2023-03-02T12:06:53;7.63;;;6.85;;
60665;SDS011;59128;44.642;21.188;2023-03-02T12:12:00;8.13;;;6.63;;
60665;SDS011;59128;44.642;21.188;2023-03-02T12:14:38;8.32;;;7.13;;
60665;SDS011;59128;44.642;21.188;2023-03-02T12:17:06;10.47;;;8.57;;
60665;SDS011;59128;44.642;21.188;2023-03-02T12:19:43;8.93;;;7.75;;
60665;SDS011;59128;44.642;21.188;2023-03-02T12:22:10;14.30;;;10.50;;
60665;SDS011;59128;44.642;21.188;2023-03-02T12:24:39;20.58;;;14.88;;
60665;SDS011;59128;44.642;21.188;2023-03-02T12:27:19;16.30;;;12.40;;
60665;SDS011;59128;44.642;21.188;2023-03-02T12:30:24;18.67;;;12.77;;
60665;SDS011;59128;44.642;21.188;2023-03-02T12:35:27;21.85;;;15.32;;
60665;SDS011;59128;44.642;21.188;2023-03-02T12:37:59;17.80;;;13.75;;
60665;SDS011;59128;44.642;21.188;2023-03-02T12:48:45;15.47;;;12.87;;
60665;SDS011;59128;44.642;21.188;2023-03-02T12:50:53;17.55;;;14.00;;
60665;SDS011;59128;44.642;21.188;2023-03-02T12:53:21;19.92;;;16.73;;
60665;SDS011;59128;44.642;21.188;2023-03-02T12:55:47;24.23;;;19.15;;
60665;SDS011;59128;44.642;21.188;2023-03-02T12:58:17;19.15;;;16.15;;
60665;SDS011;59128;44.642;21.188;2023-03-02T13:00:48;20.20;;;17.05;;
60665;SDS011;59128;44.642;21.188;2023-03-02T13:03:15;22.50;;;18.52;;
60665;SDS011;59128;44.642;21.188;2023-03-02T13:05:42;26.55;;;22.10;;
60665;SDS011;59128;44.642;21.188;2023-03-02T13:10:48;23.88;;;19.80;;
60665;SDS011;59128;44.642;21.188;2023-03-02T13:13:17;25.73;;;21.40;;
60665;SDS011;59128;44.642;21.188;2023-03-02T13:15:50;24.30;;;21.58;;
60665;SDS011;59128;44.642;21.188;2023-03-02T13:18:17;29.13;;;24.05;;
60665;SDS011;59128;44.642;21.188;2023-03-02T13:20:43;28.98;;;24.00;;
60665;SDS011;59128;44.642;21.188;2023-03-02T13:23:11;29.50;;;24.67;;
60665;SDS011;59128;44.642;21.188;2023-03-02T13:25:38;28.90;;;23.88;;
60665;SDS011;59128;44.642;21.188;2023-03-02T13:30:57;37.85;;;27.65;;
60665;SDS011;59128;44.642;21.188;2023-03-02T13:33:24;32.90;;;26.00;;
60665;SDS011;59128;44.642;21.188;2023-03-02T13:35:50;32.75;;;25.63;;
60665;SDS011;59128;44.642;21.188;2023-03-02T13:38:20;34.33;;;26.95;;
60665;SDS011;59128;44.642;21.188;2023-03-02T13:40:48;36.70;;;27.47;;
60665;SDS011;59128;44.642;21.188;2023-03-02T13:45:54;41.07;;;29.43;;
60665;SDS011;59128;44.642;21.188;2023-03-02T13:48:20;53.53;;;33.22;;
60665;SDS011;59128;44.642;21.188;2023-03-02T13:51:29;28.63;;;22.80;;
60665;SDS011;59128;44.642;21.188;2023-03-02T13:53:36;31.88;;;23.77;;
60665;SDS011;59128;44.642;21.188;2023-03-02T13:56:04;35.45;;;26.02;;
60665;SDS011;59128;44.642;21.188;2023-03-02T13:58:30;39.45;;;28.38;;
60665;SDS011;59128;44.642;21.188;2023-03-02T14:00:58;40.08;;;28.02;;
60665;SDS011;59128;44.642;21.188;2023-03-02T14:03:25;37.22;;;28.20;;
60665;SDS011;59128;44.642;21.188;2023-03-02T14:05:52;37.83;;;28.55;;
60665;SDS011;59128;44.642;21.188;2023-03-02T14:08:18;31.52;;;24.27;;
60665;SDS011;59128;44.642;21.188;2023-03-02T14:10:44;36.13;;;27.27;;
60665;SDS011;59128;44.642;21.188;2023-03-02T14:13:16;33.80;;;25.50;;
60665;SDS011;59128;44.642;21.188;2023-03-02T14:15:48;37.00;;;26.75;;
60665;SDS011;59128;44.642;21.188;2023-03-02T14:20:47;34.03;;;26.92;;
60665;SDS011;59128;44.642;21.188;2023-03-02T14:23:13;31.30;;;24.13;;
60665;SDS011;59128;44.642;21.188;2023-03-02T14:25:39;31.52;;;24.67;;
60665;SDS011;59128;44.642;21.188;2023-03-02T14:28:04;31.05;;;23.85;;
60665;SDS011;59128;44.642;21.188;2023-03-02T14:30:30;31.27;;;24.77;;
60665;SDS011;59128;44.642;21.188;2023-03-02T14:32:56;33.50;;;25.08;;
60665;SDS011;59128;44.642;21.188;2023-03-02T14:35:22;30.10;;;24.52;;
60665;SDS011;59128;44.642;21.188;2023-03-02T14:37:49;26.50;;;21.50;;
60665;SDS011;59128;44.642;21.188;2023-03-02T14:40:25;28.65;;;22.25;;
60665;SDS011;59128;44.642;21.188;2023-03-02T14:42:52;29.30;;;24.57;;
60665;SDS011;59128;44.642;21.188;2023-03-02T14:45:19;27.88;;;22.63;;
60665;SDS011;59128;44.642;21.188;2023-03-02T14:47:45;34.87;;;28.17;;
60665;SDS011;59128;44.642;21.188;2023-03-02T14:50:12;33.20;;;27.33;;
60665;SDS011;59128;44.642;21.188;2023-03-02T14:52:42;39.67;;;28.95;;
60665;SDS011;59128;44.642;21.188;2023-03-02T14:55:13;33.25;;;26.05;;
60665;SDS011;59128;44.642;21.188;2023-03-02T14:57:40;31.67;;;26.33;;
60665;SDS011;59128;44.642;21.188;2023-03-02T15:00:07;41.92;;;31.50;;
60665;SDS011;59128;44.642;21.188;2023-03-02T15:02:33;40.45;;;31.17;;
60665;SDS011;59128;44.642;21.188;2023-03-02T15:04:59;41.53;;;31.27;;
60665;SDS011;59128;44.642;21.188;2023-03-02T15:07:26;34.83;;;27.67;;
60665;SDS011;59128;44.642;21.188;2023-03-02T15:09:53;35.58;;;26.70;;
60665;SDS011;59128;44.642;21.188;2023-03-02T15:12:19;41.30;;;31.40;;
60665;SDS011;59128;44.642;21.188;2023-03-02T15:14:45;44.83;;;33.55;;
60665;SDS011;59128;44.642;21.188;2023-03-02T15:17:11;40.22;;;29.25;;
60665;SDS011;59128;44.642;21.188;2023-03-02T15:19:37;33.00;;;25.75;;
60665;SDS011;59128;44.642;21.188;2023-03-02T15:22:03;54.38;;;41.08;;
60665;SDS011;59128;44.642;21.188;2023-03-02T15:24:29;43.23;;;33.07;;
60665;SDS011;59128;44.642;21.188;2023-03-02T15:26:55;64.70;;;48.03;;
60665;SDS011;59128;44.642;21.188;2023-03-02T15:29:21;27.52;;;22.55;;
60665;SDS011;59128;44.642;21.188;2023-03-02T15:31:47;36.80;;;28.00;;
60665;SDS011;59128;44.642;21.188;2023-03-02T15:34:13;42.85;;;31.20;;